createdAt,value
2023-02-09T00:02:10.875Z,103776.91
2023-02-09T00:07:05.941Z,103988.34
2023-02-09T00:12:16.422Z,103872.38
2023-02-09T00:17:10.222Z,104008.53
2023-02-09T00:22:04.064Z,104009.28
2023-02-09T00:26:58.724Z,103991.91
2023-02-09T00:31:52.707Z,103946.81
2023-02-09T00:36:45.941Z,103978.69
2023-02-09T00:41:56.834Z,103886.19
2023-02-09T00:46:52.268Z,104007.88
2023-02-09T00:51:46.759Z,103962.34
2023-02-09T00:56:40.131Z,104007.97
2023-02-09T01:01:33.534Z,104008.06
2023-02-09T01:06:28.182Z,104002.41
2023-02-09T01:11:28.137Z,103996.78
2023-02-09T01:16:21.428Z,103957.97
2023-02-09T01:21:16.344Z,103985.97
2023-02-09T01:26:12.644Z,103867.78
2023-02-09T01:31:07.346Z,103905.97
2023-02-09T01:36:01.473Z,103958.66
2023-02-09T01:40:54.680Z,103844.06
2023-02-09T01:45:51.316Z,103992.59
2023-02-09T01:50:48.945Z,103978.78
2023-02-09T01:55:48.671Z,103940.69
2023-02-09T02:00:42.013Z,103988.22
2023-02-09T02:05:40.966Z,103906.19
2023-02-09T02:10:34.544Z,103943.09
2023-02-09T02:15:32.640Z,103968.56
2023-02-09T02:20:57.771Z,103911.09
2023-02-09T02:26:25.392Z,103942.38
2023-02-09T02:32:04.816Z,103963.00
2023-02-09T02:37:10.578Z,103926.81
2023-02-09T02:42:27.785Z,103845.94
2023-02-09T02:47:23.854Z,103967.63
2023-02-09T02:52:17.353Z,103921.34
2023-02-09T02:57:14.960Z,103820.03
2023-02-09T03:02:12.932Z,103924.88
2023-02-09T03:07:08.144Z,103896.94
2023-02-09T03:12:14.229Z,103962.69
2023-02-09T03:17:25.582Z,103805.28
2023-02-09T03:22:27.878Z,103904.38
2023-02-09T03:27:26.273Z,103909.91
2023-02-09T03:32:21.785Z,103943.78
2023-02-09T03:37:15.210Z,103837.47
2023-02-09T03:42:10.077Z,103870.13
2023-02-09T03:47:05.741Z,103925.50
2023-02-09T03:52:00.934Z,103941.44
2023-02-09T03:56:54.188Z,103941.19
2023-02-09T04:01:50.242Z,103798.72
2023-02-09T04:06:43.523Z,103901.13
2023-02-09T04:11:36.944Z,103872.63
2023-02-09T04:16:30.280Z,103901.78
2023-02-09T04:21:25.177Z,103872.41
2023-02-09T04:26:18.509Z,103788.41
2023-02-09T04:31:12.482Z,103778.13
2023-02-09T04:36:07.404Z,103848.00
2023-02-09T04:41:03.482Z,103884.38
2023-02-09T04:46:00.188Z,103907.66
2023-02-09T04:50:54.440Z,103796.38
2023-02-09T04:55:49.004Z,103814.34
2023-02-09T05:00:45.166Z,103735.47
2023-02-09T05:05:40.426Z,103845.88
2023-02-09T05:10:34.226Z,103733.81
2023-02-09T05:15:27.461Z,103733.00
2023-02-09T05:20:22.454Z,103894.38
2023-02-09T05:25:15.664Z,103884.78
2023-02-09T05:30:10.130Z,103888.88
2023-02-09T05:35:03.581Z,103802.00
2023-02-09T05:39:58.300Z,103778.69
2023-02-09T05:44:52.691Z,103854.97
2023-02-09T05:49:46.225Z,103844.84
2023-02-09T05:54:39.910Z,103827.19
2023-02-09T05:59:34.732Z,103871.59
2023-02-09T06:04:28.827Z,103772.19
2023-02-09T06:09:22.861Z,103924.44
2023-02-09T06:14:16.348Z,103916.25
2023-02-09T06:19:14.224Z,103875.94
2023-02-09T06:24:07.701Z,103682.88
2023-02-09T06:29:01.082Z,103921.91
2023-02-09T06:33:54.309Z,103897.03
2023-02-09T06:38:48.892Z,103868.03
2023-02-09T06:43:42.272Z,103871.88
2023-02-09T06:48:35.777Z,103934.06
2023-02-09T06:53:29.168Z,103926.97
2023-02-09T06:58:23.846Z,103923.59
2023-02-09T07:03:17.117Z,103835.97
2023-02-09T07:08:10.594Z,103900.16
2023-02-09T07:13:03.872Z,103850.38
2023-02-09T07:17:59.473Z,103943.94
2023-02-09T07:22:52.754Z,103862.03
2023-02-09T07:27:46.393Z,103812.47
2023-02-09T07:32:39.697Z,103927.69
2023-02-09T07:37:35.767Z,103919.81
2023-02-09T07:42:29.204Z,103944.19
2023-02-09T07:47:26.691Z,103945.97
2023-02-09T07:52:19.986Z,103933.56
2023-02-09T07:57:15.277Z,103923.66
2023-02-09T08:02:17.664Z,103911.69
2023-02-09T08:07:10.957Z,103934.25
2023-02-09T08:12:20.207Z,103798.94
2023-02-09T08:17:26.105Z,103845.38
2023-02-09T08:22:19.684Z,103880.44
2023-02-09T08:27:16.180Z,103922.69
2023-02-09T08:32:09.733Z,103830.09
2023-02-09T08:37:07.196Z,103929.13
2023-02-09T08:42:00.469Z,103879.41
2023-02-09T08:46:54.273Z,103859.50
2023-02-09T08:51:47.629Z,103936.41
2023-02-09T08:56:42.888Z,103824.84
2023-02-09T09:01:43.468Z,103935.84
2023-02-09T09:06:36.744Z,103934.78
2023-02-09T09:11:30.060Z,103926.09
2023-02-09T09:16:25.030Z,103887.50
2023-02-09T09:21:19.893Z,103801.94
2023-02-09T09:26:13.375Z,103880.69
2023-02-09T09:31:09.911Z,103810.22
2023-02-09T09:36:38.700Z,103672.63
2023-02-09T09:47:15.803Z,103909.31
2023-02-09T09:52:53.934Z,103706.59
2023-02-09T09:57:47.819Z,103882.13
2023-02-09T10:02:55.913Z,103665.06
2023-02-09T10:08:25.712Z,103870.47
2023-02-09T10:13:40.090Z,103767.16
2023-02-09T10:20:02.515Z,103875.94
2023-02-09T10:26:26.403Z,103611.09
2023-02-09T10:32:28.922Z,103555.81
2023-02-09T10:38:02.043Z,103583.63
2023-02-09T10:56:25.004Z,103662.59
2023-02-09T11:03:01.053Z,103645.81
2023-02-09T11:07:46.616Z,103616.16
2023-02-09T11:12:46.285Z,103605.72
2023-02-09T11:17:45.865Z,103698.72
2023-02-09T11:23:08.518Z,103717.22
2023-02-09T11:28:44.733Z,103797.69
2023-02-09T11:33:56.505Z,103600.25
2023-02-09T11:38:54.373Z,103726.44
2023-02-09T11:43:57.989Z,103644.19
2023-02-09T11:49:13.794Z,103640.91
2023-02-09T11:54:37.158Z,103768.81
2023-02-09T11:59:38.234Z,103566.56
2023-02-09T12:04:39.112Z,103771.66
2023-02-09T12:09:44.970Z,103631.94
2023-02-09T12:15:01.769Z,103762.56
2023-02-09T12:20:00.672Z,103751.16
2023-02-09T12:25:14.215Z,103752.81
2023-02-09T12:30:40.904Z,103729.28
2023-02-09T12:35:41.433Z,103666.97
2023-02-09T12:40:38.824Z,103709.38
2023-02-09T12:45:36.212Z,103731.72
2023-02-09T12:50:50.058Z,103756.69
2023-02-09T12:56:03.067Z,103722.00
2023-02-09T13:00:58.600Z,103661.50
2023-02-09T13:05:58.539Z,103684.84
2023-02-09T13:11:04.752Z,103643.09
2023-02-09T13:16:31.299Z,103714.06
2023-02-09T13:21:37.562Z,103716.72
2023-02-09T13:26:33.931Z,103634.44
2023-02-09T13:31:35.031Z,103733.81
2023-02-09T13:36:47.506Z,103480.13
2023-02-09T13:41:41.838Z,103599.50
2023-02-09T13:46:45.116Z,103728.63
2023-02-09T13:51:39.950Z,103655.06
2023-02-09T13:56:44.952Z,103578.00
2023-02-09T14:01:51.904Z,103716.34
2023-02-09T14:06:58.477Z,103621.84
2023-02-09T14:11:55.053Z,103686.63
2023-02-09T14:17:22.760Z,103714.38
2023-02-09T14:22:35.706Z,103706.47
2023-02-09T14:27:33.049Z,103629.22
2023-02-09T14:32:35.298Z,103546.03
2023-02-09T14:37:32.106Z,103663.66
2023-02-09T14:42:25.710Z,103651.44
2023-02-09T14:47:38.739Z,103575.06
2023-02-09T14:52:33.813Z,103697.19
2023-02-09T14:57:29.873Z,103682.31
2023-02-09T15:02:26.377Z,103615.34
2023-02-09T15:07:25.328Z,103673.31
2023-02-09T15:12:27.597Z,103705.16
2023-02-09T15:17:23.744Z,103663.19
2023-02-09T15:22:18.302Z,103653.44
2023-02-09T15:27:17.968Z,103599.81
2023-02-09T15:32:43.772Z,103539.88
2023-02-09T15:37:42.439Z,103466.84
2023-02-09T15:42:59.399Z,103696.00
2023-02-09T15:47:56.821Z,103626.41
2023-02-09T15:52:59.598Z,103718.13
2023-02-09T15:58:35.419Z,103647.47
2023-02-09T16:03:38.969Z,103525.78
2023-02-09T16:08:34.624Z,103677.38
2023-02-09T16:13:34.015Z,103729.22
2023-02-09T16:18:31.512Z,103662.34
2023-02-09T16:23:27.465Z,103709.78
2023-02-09T16:28:27.054Z,103726.16
2023-02-09T16:33:20.844Z,103727.50
2023-02-09T16:38:19.166Z,103517.22
2023-02-09T16:43:14.392Z,103577.53
2023-02-09T16:48:17.860Z,103653.69
2023-02-09T16:53:19.262Z,103735.03
2023-02-09T16:58:35.767Z,103651.53
2023-02-09T17:03:46.072Z,103443.94
2023-02-09T17:09:28.646Z,103448.78
2023-02-09T17:14:42.268Z,103611.44
2023-02-09T17:19:50.069Z,103617.00
2023-02-09T17:24:50.989Z,103697.50
2023-02-09T17:29:50.689Z,103653.72
2023-02-09T17:34:44.280Z,103641.19
2023-02-09T17:39:43.498Z,103596.66
2023-02-09T17:44:46.570Z,103726.84
2023-02-09T17:49:47.313Z,103583.16
2023-02-09T17:54:50.161Z,103738.34
2023-02-09T18:05:17.764Z,103740.03
2023-02-09T18:10:30.704Z,103634.31
2023-02-09T18:15:25.612Z,103691.38
2023-02-09T18:20:32.258Z,103464.34
2023-02-09T18:25:36.592Z,103729.09
2023-02-09T18:30:37.443Z,103731.34
2023-02-09T18:35:35.417Z,103598.09
2023-02-09T18:40:32.150Z,103631.97
2023-02-09T18:45:25.887Z,103617.44
2023-02-09T18:50:22.204Z,103584.41
2023-02-09T18:55:18.594Z,103694.03
2023-02-09T19:00:15.019Z,103608.19
2023-02-09T19:05:11.082Z,103716.75
2023-02-09T19:10:06.051Z,103611.63
2023-02-09T19:15:01.538Z,103704.75
2023-02-09T19:20:05.146Z,103694.66
2023-02-09T19:24:59.228Z,103684.06
2023-02-09T19:29:59.201Z,103649.25
2023-02-09T19:34:53.880Z,103574.84
2023-02-09T19:39:56.261Z,103581.63
2023-02-09T19:44:50.458Z,103606.81
2023-02-09T19:50:03.297Z,103633.00
2023-02-09T19:54:58.623Z,103666.19
2023-02-09T19:59:57.051Z,103569.78
2023-02-09T20:04:53.092Z,103665.47
2023-02-09T20:09:47.143Z,103703.31
2023-02-09T20:14:42.054Z,103703.91
2023-02-09T20:19:39.330Z,103639.88
2023-02-09T20:24:32.897Z,103551.59
2023-02-09T20:29:26.173Z,103671.13
2023-02-09T20:34:23.835Z,103574.66
2023-02-09T20:39:18.025Z,103708.22
2023-02-09T20:44:30.921Z,103452.59
2023-02-09T20:49:31.481Z,103569.44
2023-02-09T20:54:25.285Z,103560.09
2023-02-09T20:59:18.713Z,103689.56
2023-02-09T21:04:14.164Z,103686.53
2023-02-09T21:09:10.636Z,103682.91
2023-02-09T21:14:04.486Z,103687.06
2023-02-09T21:18:57.872Z,103605.78
2023-02-09T21:23:51.208Z,103667.03
2023-02-09T21:28:48.373Z,103667.63
2023-02-09T21:33:41.741Z,103658.84
2023-02-09T21:38:41.657Z,103513.94
2023-02-09T21:43:35.198Z,103553.72
2023-02-09T21:48:31.943Z,103631.56
2023-02-09T21:53:25.247Z,103659.88
2023-02-09T21:58:18.533Z,103664.09
2023-02-09T22:03:11.865Z,103623.19
2023-02-09T22:08:06.821Z,103612.00
2023-02-09T22:13:00.160Z,103662.75
2023-02-09T22:17:53.475Z,103602.38
2023-02-09T22:22:46.836Z,103606.47
2023-02-09T22:27:41.452Z,103675.84
2023-02-09T22:32:34.774Z,103634.97
2023-02-09T22:37:28.051Z,103678.25
2023-02-09T22:42:21.297Z,103669.28
2023-02-09T22:47:15.946Z,103548.31
2023-02-09T22:52:10.538Z,103553.44
2023-02-09T22:57:03.944Z,103612.81
2023-02-09T23:01:57.290Z,103555.59
2023-02-09T23:06:51.977Z,103575.53
2023-02-09T23:11:45.528Z,103618.34
2023-02-09T23:16:40.088Z,103630.06
2023-02-09T23:21:35.833Z,103607.66
2023-02-09T23:26:30.657Z,103637.84
2023-02-09T23:31:24.415Z,103620.81
2023-02-09T23:36:19.883Z,103613.13
2023-02-09T23:41:15.121Z,103573.94
2023-02-09T23:46:12.866Z,103660.72
2023-02-09T23:51:07.791Z,103604.66
2023-02-09T23:56:03.865Z,103595.88
